createdAt,value
2018-08-12T00:01:14.166Z,8.30
2018-08-12T00:03:45.523Z,4.87
2018-08-12T00:06:16.906Z,4.93
2018-08-12T00:08:48.361Z,4.60
2018-08-12T00:11:19.793Z,5.27
2018-08-12T00:13:51.348Z,4.87
2018-08-12T00:16:22.639Z,6.57
2018-08-12T00:18:54.116Z,5.27
2018-08-12T00:21:25.353Z,5.20
2018-08-12T00:24:00.063Z,4.57
2018-08-12T00:26:31.274Z,6.93
2018-08-12T00:29:02.604Z,5.60
2018-08-12T00:31:34.253Z,5.53
2018-08-12T00:34:05.557Z,4.20
2018-08-12T00:36:36.954Z,5.90
2018-08-12T00:39:12.606Z,6.13
2018-08-12T00:41:44.081Z,2.70
2018-08-12T00:44:15.465Z,4.67
2018-08-12T00:46:47.179Z,5.83
2018-08-12T00:49:18.476Z,9.70
2018-08-12T00:51:49.960Z,7.83
2018-08-12T00:54:21.411Z,9.47
2018-08-12T00:56:52.821Z,3.70
2018-08-12T00:59:24.311Z,5.60
2018-08-12T01:01:55.905Z,4.60
2018-08-12T01:04:27.263Z,3.20
2018-08-12T01:06:58.619Z,3.77
2018-08-12T01:09:30.178Z,4.13
2018-08-12T01:12:01.758Z,3.70
2018-08-12T01:14:33.022Z,3.47
2018-08-12T01:17:04.525Z,3.30
2018-08-12T01:19:35.974Z,6.60
2018-08-12T01:22:07.650Z,8.53
2018-08-12T01:24:39.219Z,5.27
2018-08-12T01:27:10.458Z,6.60
2018-08-12T01:29:41.974Z,7.37
2018-08-12T01:32:13.528Z,5.63
2018-08-12T01:34:45.099Z,6.17
2018-08-12T01:37:16.693Z,5.97
2018-08-12T01:39:48.833Z,4.33
2018-08-12T01:42:20.308Z,7.60
2018-08-12T01:44:52.580Z,4.10
2018-08-12T01:47:23.871Z,10.60
2018-08-12T01:49:55.996Z,6.50
2018-08-12T01:52:27.645Z,7.33
2018-08-12T01:54:59.228Z,7.13
2018-08-12T01:57:30.505Z,4.57
2018-08-12T02:00:02.753Z,6.27
2018-08-12T02:02:34.226Z,5.17
2018-08-12T02:05:05.889Z,5.00
2018-08-12T02:07:37.245Z,7.10
2018-08-12T02:10:10.247Z,5.10
2018-08-12T02:12:42.160Z,5.10
2018-08-12T02:15:13.597Z,5.60
2018-08-12T02:17:45.325Z,6.17
2018-08-12T02:20:16.628Z,7.50
2018-08-12T02:22:48.170Z,7.43
2018-08-12T02:25:19.567Z,6.93
2018-08-12T02:27:51.138Z,8.30
2018-08-12T02:30:22.295Z,6.87
2018-08-12T02:32:53.813Z,8.40
2018-08-12T02:35:25.023Z,6.10
2018-08-12T02:37:56.844Z,11.80
2018-08-12T02:40:28.148Z,6.90
2018-08-12T02:42:59.599Z,8.40
2018-08-12T02:45:30.876Z,10.93
2018-08-12T02:48:02.896Z,9.17
2018-08-12T02:50:35.749Z,9.53
2018-08-12T02:53:07.305Z,12.80
2018-08-12T02:55:39.021Z,8.90
2018-08-12T02:58:10.404Z,8.40
2018-08-12T03:00:41.960Z,8.00
2018-08-12T03:03:13.383Z,10.30
2018-08-12T03:05:44.796Z,8.73
2018-08-12T03:08:16.216Z,9.20
2018-08-12T03:10:47.866Z,7.53
2018-08-12T03:13:19.195Z,9.97
2018-08-12T03:15:56.701Z,9.70
2018-08-12T03:18:28.389Z,13.50
2018-08-12T03:20:59.600Z,8.97
2018-08-12T03:23:31.224Z,6.10
2018-08-12T03:26:02.699Z,7.63
2018-08-12T03:28:34.122Z,8.30
2018-08-12T03:31:05.494Z,6.90
2018-08-12T03:33:36.811Z,14.53
2018-08-12T03:36:08.723Z,7.70
2018-08-12T03:38:40.427Z,5.90
2018-08-12T03:41:12.207Z,8.27
2018-08-12T03:43:43.617Z,7.43
2018-08-12T03:46:15.134Z,5.63
2018-08-12T03:48:46.501Z,12.07
2018-08-12T03:51:17.846Z,8.63
2018-08-12T03:53:49.138Z,13.00
2018-08-12T03:56:20.734Z,10.30
2018-08-12T03:58:51.931Z,11.10
2018-08-12T04:01:23.276Z,7.87
2018-08-12T04:03:54.765Z,9.00
2018-08-12T04:06:26.242Z,9.50
2018-08-12T04:08:57.626Z,15.07
2018-08-12T04:11:29.036Z,8.07
2018-08-12T04:14:00.526Z,8.37
2018-08-12T04:16:32.029Z,8.30
2018-08-12T04:19:03.509Z,8.00
2018-08-12T04:21:34.874Z,6.90
2018-08-12T04:24:06.470Z,9.37
2018-08-12T04:26:37.667Z,8.33
2018-08-12T04:29:09.118Z,9.37
2018-08-12T04:31:40.461Z,11.20
2018-08-12T04:34:11.673Z,8.70
2018-08-12T04:36:42.964Z,12.50
2018-08-12T04:39:15.142Z,10.77
2018-08-12T04:41:48.421Z,9.00
2018-08-12T04:44:19.778Z,12.03
2018-08-12T04:46:52.009Z,11.23
2018-08-12T04:49:23.300Z,8.73
2018-08-12T04:51:54.896Z,11.33
2018-08-12T04:54:26.545Z,7.37
2018-08-12T04:56:57.887Z,10.30
2018-08-12T04:59:29.365Z,8.60
2018-08-12T05:02:00.774Z,11.40
2018-08-12T05:04:32.052Z,8.60
2018-08-12T05:07:03.635Z,18.20
2018-08-12T05:09:34.951Z,10.33
2018-08-12T05:12:06.494Z,8.73
2018-08-12T05:14:37.785Z,9.10
2018-08-12T05:17:09.460Z,8.07
2018-08-12T05:19:40.765Z,7.37
2018-08-12T05:22:12.069Z,5.97
2018-08-12T05:24:43.439Z,10.83
2018-08-12T05:27:14.865Z,13.80
2018-08-12T05:29:46.419Z,8.93
2018-08-12T05:32:18.783Z,5.97
2018-08-12T05:34:50.830Z,6.27
2018-08-12T05:37:22.307Z,12.40
2018-08-12T05:39:53.980Z,6.10
2018-08-12T05:42:25.457Z,5.73
2018-08-12T05:45:09.826Z,6.10
2018-08-12T05:47:41.659Z,5.97
2018-08-12T05:50:13.507Z,9.93
2018-08-12T05:52:44.850Z,8.87
2018-08-12T05:55:16.088Z,8.90
2018-08-12T05:58:45.681Z,7.60
2018-08-12T06:01:16.958Z,7.63
2018-08-12T06:03:48.302Z,5.63
2018-08-12T06:06:19.963Z,7.43
2018-08-12T06:09:39.897Z,5.87
2018-08-12T06:12:42.496Z,7.30
2018-08-12T06:15:22.188Z,7.63
2018-08-12T06:17:54.026Z,7.73
2018-08-12T06:20:25.459Z,6.30
2018-08-12T06:23:05.323Z,6.23
2018-08-12T06:25:38.719Z,7.90
2018-08-12T06:28:10.316Z,6.23
2018-08-12T06:30:42.034Z,5.53
2018-08-12T06:33:13.693Z,7.83
2018-08-12T06:35:46.057Z,6.50
2018-08-12T06:38:17.588Z,5.67
2018-08-12T06:40:48.904Z,11.17
2018-08-12T06:43:20.645Z,7.53
2018-08-12T06:45:52.003Z,5.90
2018-08-12T06:48:24.101Z,6.27
2018-08-12T06:50:55.752Z,9.87
2018-08-12T06:53:27.412Z,5.63
2018-08-12T06:55:58.703Z,8.90
2018-08-12T06:58:30.524Z,5.83
2018-08-12T07:01:01.962Z,6.50
2018-08-12T07:03:33.516Z,8.67
2018-08-12T07:06:05.019Z,5.50
2018-08-12T07:08:36.429Z,6.43
2018-08-12T07:11:08.396Z,6.93
2018-08-12T07:13:39.957Z,8.27
2018-08-12T07:16:19.470Z,7.50
2018-08-12T07:18:51.000Z,7.40
2018-08-12T07:21:22.305Z,6.93
2018-08-12T07:23:53.781Z,5.50
2018-08-12T07:26:25.192Z,9.57
2018-08-12T07:28:56.681Z,7.50
2018-08-12T07:31:32.599Z,6.13
2018-08-12T07:34:17.088Z,9.27
2018-08-12T07:37:05.534Z,8.50
2018-08-12T07:39:37.038Z,7.60
2018-08-12T07:42:08.539Z,6.40
2018-08-12T07:44:58.036Z,6.97
2018-08-12T07:47:35.980Z,7.53
2018-08-12T07:50:09.417Z,7.67
2018-08-12T07:52:41.250Z,6.50
2018-08-12T07:55:13.576Z,8.00
2018-08-12T07:57:45.846Z,8.43
2018-08-12T08:00:21.908Z,5.13
2018-08-12T08:05:35.711Z,6.70
2018-08-12T08:08:07.414Z,13.20
2018-08-12T08:10:40.149Z,6.47
2018-08-12T08:13:11.705Z,6.20
2018-08-12T08:15:43.100Z,7.73
2018-08-12T08:18:14.445Z,6.67
2018-08-12T08:20:46.027Z,9.70
2018-08-12T08:23:17.795Z,6.27
2018-08-12T08:25:49.485Z,9.43
2018-08-12T08:32:08.756Z,5.73
2018-08-12T08:34:47.862Z,4.40
2018-08-12T08:37:16.707Z,5.37
2018-08-12T08:39:47.318Z,5.67
2018-08-12T08:42:17.852Z,5.70
2018-08-12T08:45:07.423Z,5.93
2018-08-12T08:47:36.247Z,4.60
2018-08-12T08:50:05.908Z,9.53
2018-08-12T08:52:35.176Z,5.27
2018-08-12T08:55:04.369Z,8.47
2018-08-12T08:57:33.535Z,9.63
2018-08-12T09:00:02.334Z,8.47
2018-08-12T09:02:31.209Z,4.87
2018-08-12T09:05:00.056Z,5.70
2018-08-12T09:07:28.896Z,9.43
2018-08-12T09:09:57.746Z,6.03
2018-08-12T09:12:26.520Z,5.50
2018-08-12T09:14:55.388Z,8.90
2018-08-12T09:17:24.151Z,3.60
2018-08-12T09:19:52.920Z,6.93
2018-08-12T09:22:21.716Z,7.73
2018-08-12T09:24:50.514Z,6.03
2018-08-12T09:27:19.317Z,8.97
2018-08-12T09:29:48.081Z,4.40
2018-08-12T09:32:17.143Z,6.37
2018-08-12T09:34:45.968Z,4.87
2018-08-12T09:37:14.803Z,5.43
2018-08-12T09:39:43.579Z,6.57
2018-08-12T09:42:12.416Z,3.67
2018-08-12T09:44:41.206Z,6.50
2018-08-12T09:47:09.982Z,7.73
2018-08-12T09:49:39.307Z,4.40
2018-08-12T09:52:08.140Z,3.37
2018-08-12T09:54:36.989Z,10.33
2018-08-12T09:57:05.832Z,3.03
2018-08-12T09:59:34.678Z,3.33
2018-08-12T10:02:03.563Z,3.50
2018-08-12T10:04:32.382Z,5.97
2018-08-12T10:07:01.251Z,8.20
2018-08-12T10:09:30.076Z,6.13
2018-08-12T10:11:58.964Z,6.80
2018-08-12T10:14:27.784Z,5.83
2018-08-12T10:16:56.685Z,3.70
2018-08-12T10:19:25.621Z,9.33
2018-08-12T10:21:54.563Z,1.60
2018-08-12T10:24:23.362Z,2.63
2018-08-12T10:26:52.180Z,2.50
2018-08-12T10:29:21.160Z,2.60
2018-08-12T10:31:49.878Z,2.10
2018-08-12T10:34:18.690Z,3.77
2018-08-12T10:36:47.568Z,2.30
2018-08-12T10:39:16.347Z,3.50
2018-08-12T10:41:45.202Z,2.93
2018-08-12T10:44:13.980Z,1.97
2018-08-12T10:46:42.786Z,1.63
2018-08-12T10:49:11.638Z,8.47
2018-08-12T10:51:40.489Z,3.60
2018-08-12T10:54:09.464Z,4.93
2018-08-12T10:56:38.500Z,3.60
2018-08-12T10:59:07.401Z,2.53
2018-08-12T11:01:36.252Z,3.03
2018-08-12T11:04:05.092Z,2.90
2018-08-12T11:06:34.020Z,3.03
2018-08-12T11:09:02.905Z,3.17
2018-08-12T11:11:31.803Z,7.70
2018-08-12T11:14:00.698Z,2.20
2018-08-12T11:16:29.472Z,4.77
2018-08-12T11:18:58.276Z,6.33
2018-08-12T11:21:27.061Z,4.70
2018-08-12T11:23:55.880Z,6.97
2018-08-12T11:26:24.739Z,6.73
2018-08-12T11:28:53.682Z,2.23
2018-08-12T11:31:22.537Z,2.73
2018-08-12T11:33:51.363Z,2.90
2018-08-12T11:36:20.189Z,3.63
2018-08-12T11:38:48.995Z,3.50
2018-08-12T11:41:17.904Z,5.57
2018-08-12T11:43:46.630Z,4.50
2018-08-12T11:46:15.460Z,1.67
2018-08-12T11:48:44.264Z,3.33
2018-08-12T11:51:13.061Z,2.83
2018-08-12T11:53:41.862Z,1.97
2018-08-12T11:56:10.737Z,2.87
2018-08-12T11:58:39.580Z,4.90
2018-08-12T12:01:08.375Z,7.20
2018-08-12T12:03:37.205Z,4.13
2018-08-12T12:06:06.279Z,3.30
2018-08-12T12:08:35.179Z,3.30
2018-08-12T12:11:03.988Z,4.53
2018-08-12T12:13:32.786Z,4.77
2018-08-12T12:16:01.605Z,4.97
2018-08-12T12:18:30.714Z,2.17
2018-08-12T12:20:59.483Z,2.13
2018-08-12T12:23:28.642Z,2.77
2018-08-12T12:25:57.490Z,3.73
2018-08-12T12:28:26.252Z,1.47
2018-08-12T12:30:55.121Z,4.23
2018-08-12T12:33:23.932Z,4.10
2018-08-12T12:35:52.835Z,3.63
2018-08-12T12:38:21.654Z,3.27
2018-08-12T12:40:50.515Z,4.57
2018-08-12T12:43:19.341Z,2.67
2018-08-12T12:45:48.135Z,2.20
2018-08-12T12:48:17.004Z,2.63
2018-08-12T12:50:45.831Z,1.63
2018-08-12T12:53:14.657Z,1.73
2018-08-12T12:55:43.495Z,1.97
2018-08-12T12:58:12.366Z,1.67
2018-08-12T13:00:41.148Z,2.27
2018-08-12T13:03:10.021Z,1.83
2018-08-12T13:05:38.868Z,3.67
2018-08-12T13:08:07.733Z,3.03
2018-08-12T13:10:36.590Z,3.33
2018-08-12T13:13:05.458Z,1.33
2018-08-12T13:15:34.283Z,2.73
2018-08-12T13:18:03.135Z,1.20
2018-08-12T13:20:32.013Z,2.60
2018-08-12T13:23:00.964Z,1.63
2018-08-12T13:25:29.795Z,1.50
2018-08-12T13:27:58.589Z,1.70
2018-08-12T13:30:27.482Z,1.30
2018-08-12T13:32:56.376Z,1.90
2018-08-12T13:35:25.418Z,2.30
2018-08-12T13:37:54.311Z,2.30
2018-08-12T13:40:23.118Z,1.30
2018-08-12T13:42:51.971Z,1.47
2018-08-12T13:45:20.804Z,1.27
2018-08-12T13:47:49.849Z,1.50
2018-08-12T13:50:22.838Z,1.90
2018-08-12T13:52:52.473Z,1.07
2018-08-12T13:55:21.969Z,3.50
2018-08-12T13:57:52.555Z,7.40
2018-08-12T14:00:22.753Z,2.30
2018-08-12T14:02:51.606Z,1.23
2018-08-12T14:05:20.814Z,1.40
2018-08-12T14:07:50.268Z,2.40
2018-08-12T14:10:19.228Z,2.10
2018-08-12T14:12:48.088Z,0.97
2018-08-12T14:15:18.162Z,1.97
2018-08-12T14:17:47.935Z,1.63
2018-08-12T14:20:18.495Z,1.10
2018-08-12T14:22:47.393Z,2.10
2018-08-12T14:25:16.291Z,2.30
2018-08-12T14:27:45.555Z,5.63
2018-08-12T14:30:17.220Z,1.37
2018-08-12T14:32:47.324Z,1.33
2018-08-12T14:35:16.172Z,1.13
2018-08-12T14:37:47.117Z,2.00
2018-08-12T14:40:16.333Z,2.50
2018-08-12T14:42:45.332Z,1.57
2018-08-12T14:45:15.351Z,0.80
2018-08-12T14:47:44.612Z,1.50
2018-08-12T14:50:17.227Z,1.83
2018-08-12T14:52:46.081Z,1.30
2018-08-12T14:55:15.754Z,1.30
2018-08-12T14:57:44.651Z,2.20
2018-08-12T15:00:15.381Z,1.60
2018-08-12T15:02:44.960Z,4.53
2018-08-12T15:05:13.735Z,2.53
2018-08-12T15:07:42.588Z,1.27
2018-08-12T15:10:12.136Z,1.90
2018-08-12T15:12:41.965Z,1.90
2018-08-12T15:15:12.411Z,1.13
2018-08-12T15:17:42.610Z,1.23
2018-08-12T15:20:11.901Z,1.37
2018-08-12T15:22:40.971Z,2.87
2018-08-12T15:25:11.586Z,2.97
2018-08-12T15:27:53.158Z,2.60
2018-08-12T15:30:22.084Z,1.83
2018-08-12T15:32:50.925Z,2.73
2018-08-12T15:35:19.838Z,1.30
2018-08-12T15:37:48.665Z,2.00
2018-08-12T15:40:17.576Z,3.13
2018-08-12T15:42:46.393Z,4.83
2018-08-12T15:45:16.825Z,3.03
2018-08-12T15:47:46.372Z,1.77
2018-08-12T15:50:15.376Z,1.73
2018-08-12T15:52:45.756Z,1.67
2018-08-12T15:55:14.876Z,0.80
2018-08-12T15:57:43.741Z,1.80
2018-08-12T16:00:49.944Z,1.60
2018-08-12T16:03:58.326Z,1.70
2018-08-12T16:06:28.452Z,4.00
2018-08-12T16:08:57.302Z,1.67
2018-08-12T16:11:35.352Z,1.33
2018-08-12T16:14:11.677Z,2.30
2018-08-12T16:16:40.504Z,1.40
2018-08-12T16:19:09.340Z,1.40
2018-08-12T16:21:38.268Z,2.83
2018-08-12T16:24:07.159Z,1.83
2018-08-12T16:26:35.997Z,1.70
2018-08-12T16:29:06.169Z,1.40
2018-08-12T16:31:35.085Z,3.10
2018-08-12T16:34:03.878Z,6.40
2018-08-12T16:36:32.707Z,1.60
2018-08-12T16:39:01.584Z,1.80
2018-08-12T16:41:30.444Z,8.10
2018-08-12T16:43:59.314Z,5.03
2018-08-12T16:46:28.100Z,6.27
2018-08-12T16:48:57.017Z,4.20
2018-08-12T16:51:25.881Z,0.93
2018-08-12T16:53:54.717Z,1.20
2018-08-12T16:56:23.534Z,2.27
2018-08-12T16:58:52.439Z,1.73
2018-08-12T17:01:21.338Z,1.17
2018-08-12T17:03:50.250Z,1.40
2018-08-12T17:06:19.116Z,1.17
2018-08-12T17:08:47.902Z,2.20
2018-08-12T17:11:16.796Z,1.13
2018-08-12T17:13:45.655Z,2.63
2018-08-12T17:16:14.548Z,1.83
2018-08-12T17:18:43.483Z,5.90
2018-08-12T17:21:12.348Z,1.33
2018-08-12T17:23:41.244Z,1.07
2018-08-12T17:26:10.070Z,1.77
2018-08-12T17:28:38.985Z,1.80
2018-08-12T17:31:07.803Z,2.10
2018-08-12T17:33:36.614Z,4.10
2018-08-12T17:36:05.683Z,1.40
2018-08-12T17:38:34.587Z,1.83
2018-08-12T17:41:03.513Z,1.07
2018-08-12T17:43:32.377Z,1.40
2018-08-12T17:46:01.152Z,1.60
2018-08-12T17:48:30.283Z,1.80
2018-08-12T17:50:59.043Z,7.50
2018-08-12T17:53:27.860Z,3.30
2018-08-12T17:55:56.655Z,1.33
2018-08-12T17:58:25.514Z,1.87
2018-08-12T18:00:54.341Z,1.90
2018-08-12T18:03:23.183Z,1.43
2018-08-12T18:05:52.055Z,3.03
2018-08-12T18:08:29.681Z,1.50
2018-08-12T18:10:58.544Z,3.60
2018-08-12T18:13:29.989Z,5.23
2018-08-12T18:15:58.993Z,1.73
2018-08-12T18:18:27.830Z,2.07
2018-08-12T18:20:56.779Z,2.30
2018-08-12T18:23:25.606Z,7.20
2018-08-12T18:25:54.457Z,1.63
2018-08-12T18:28:23.554Z,1.67
2018-08-12T18:30:52.332Z,2.40
2018-08-12T18:33:21.153Z,3.67
2018-08-12T18:35:50.024Z,1.67
2018-08-12T18:38:18.856Z,2.50
2018-08-12T18:40:47.661Z,2.43
2018-08-12T18:43:16.688Z,1.87
2018-08-12T18:45:45.456Z,6.63
2018-08-12T18:48:14.353Z,1.80
2018-08-12T18:50:43.207Z,1.73
2018-08-12T18:53:12.104Z,1.37
2018-08-12T18:55:40.939Z,6.13
2018-08-12T18:58:10.269Z,1.90
2018-08-12T19:00:39.237Z,2.70
2018-08-12T19:03:08.161Z,2.40
2018-08-12T19:05:37.411Z,1.73
2018-08-12T19:08:06.333Z,4.03
2018-08-12T19:10:35.196Z,3.47
2018-08-12T19:13:04.286Z,4.10
2018-08-12T19:15:33.209Z,3.77
2018-08-12T19:18:02.068Z,1.90
2018-08-12T19:20:30.861Z,6.23
2018-08-12T19:22:59.915Z,1.60
2018-08-12T19:25:29.321Z,2.60
2018-08-12T19:27:58.572Z,2.53
2018-08-12T19:30:28.691Z,1.87
2018-08-12T19:32:57.480Z,1.70
2018-08-12T19:35:27.054Z,4.23
2018-08-12T19:37:56.104Z,2.83
2018-08-12T19:40:25.163Z,2.73
2018-08-12T19:42:54.877Z,1.70
2018-08-12T19:45:23.758Z,2.30
2018-08-12T19:47:52.574Z,5.70
2018-08-12T19:50:21.400Z,2.07
2018-08-12T19:52:50.245Z,5.43
2018-08-12T19:55:19.086Z,4.17
2018-08-12T19:57:49.100Z,2.17
2018-08-12T20:00:17.996Z,2.17
2018-08-12T20:02:46.920Z,2.93
2018-08-12T20:05:15.734Z,4.87
2018-08-12T20:07:45.088Z,5.33
2018-08-12T20:10:14.060Z,3.20
2018-08-12T20:12:42.854Z,2.63
2018-08-12T20:15:12.374Z,2.43
2018-08-12T20:17:41.925Z,2.20
2018-08-12T20:20:12.398Z,1.90
2018-08-12T20:22:41.287Z,3.93
2018-08-12T20:25:10.371Z,8.03
2018-08-12T20:27:39.212Z,2.17
2018-08-12T20:30:10.261Z,2.00
2018-08-12T20:32:39.298Z,3.80
2018-08-12T20:35:08.295Z,6.00
2018-08-12T20:37:37.154Z,2.83
2018-08-12T20:40:07.013Z,2.70
2018-08-12T20:42:36.458Z,1.90
2018-08-12T20:45:05.754Z,2.70
2018-08-12T20:47:34.962Z,2.57
2018-08-12T20:50:04.474Z,2.10
2018-08-12T20:52:33.358Z,3.90
2018-08-12T20:55:02.201Z,2.10
2018-08-12T20:57:31.005Z,2.60
2018-08-12T20:59:59.782Z,2.30
2018-08-12T21:02:28.610Z,2.80
2018-08-12T21:04:57.429Z,3.97
2018-08-12T21:07:26.330Z,6.47
2018-08-12T21:09:55.106Z,5.10
2018-08-12T21:12:23.968Z,3.47
2018-08-12T21:14:52.809Z,3.83
2018-08-12T21:17:21.593Z,2.40
2018-08-12T21:19:50.438Z,2.40
2018-08-12T21:22:19.266Z,5.20
2018-08-12T21:24:48.121Z,3.30
2018-08-12T21:27:16.997Z,5.00
2018-08-12T21:29:45.824Z,8.60
2018-08-12T21:32:14.618Z,2.77
2018-08-12T21:34:43.377Z,4.30
2018-08-12T21:37:12.261Z,2.93
2018-08-12T21:39:41.108Z,2.40
2018-08-12T21:42:09.980Z,3.20
2018-08-12T21:44:38.755Z,4.50
2018-08-12T21:47:07.542Z,2.67
2018-08-12T21:49:36.381Z,2.93
2018-08-12T21:52:05.283Z,3.60
2018-08-12T21:54:34.137Z,8.83
2018-08-12T21:57:03.067Z,3.30
2018-08-12T21:59:31.890Z,2.93
2018-08-12T22:02:00.781Z,2.37
2018-08-12T22:04:29.710Z,3.27
2018-08-12T22:06:58.555Z,2.93
2018-08-12T22:09:27.363Z,4.60
2018-08-12T22:11:56.258Z,3.00
2018-08-12T22:14:25.157Z,6.30
2018-08-12T22:16:53.942Z,3.27
2018-08-12T22:19:22.775Z,3.50
2018-08-12T22:21:51.607Z,3.00
2018-08-12T22:24:20.428Z,6.37
2018-08-12T22:26:49.216Z,5.10
2018-08-12T22:29:18.032Z,3.10
2018-08-12T22:31:46.903Z,3.43
2018-08-12T22:34:15.710Z,2.70
2018-08-12T22:36:44.492Z,2.67
2018-08-12T22:39:13.976Z,4.77
2018-08-12T22:41:42.794Z,4.87
2018-08-12T22:44:11.574Z,5.20
2018-08-12T22:46:40.413Z,3.90
2018-08-12T22:49:09.250Z,7.90
2018-08-12T22:51:38.091Z,3.40
2018-08-12T22:54:06.938Z,4.40
2018-08-12T22:56:35.739Z,5.60
2018-08-12T22:59:04.622Z,8.77
2018-08-12T23:01:33.569Z,3.63
2018-08-12T23:04:02.448Z,3.50
2018-08-12T23:06:31.297Z,3.97
2018-08-12T23:09:00.169Z,5.87
2018-08-12T23:11:28.962Z,3.40
2018-08-12T23:13:57.858Z,3.87
2018-08-12T23:16:37.957Z,5.90
2018-08-12T23:19:06.770Z,5.13
2018-08-12T23:21:35.565Z,4.30
2018-08-12T23:24:04.443Z,3.77
2018-08-12T23:26:33.289Z,4.57
2018-08-12T23:29:02.082Z,4.40
2018-08-12T23:31:30.896Z,4.17
2018-08-12T23:33:59.719Z,4.73
2018-08-12T23:36:28.620Z,3.80
2018-08-12T23:38:57.425Z,4.17
2018-08-12T23:41:26.270Z,5.90
2018-08-12T23:43:55.154Z,3.57
2018-08-12T23:46:23.993Z,4.07
2018-08-12T23:48:52.925Z,3.23
2018-08-12T23:51:21.705Z,5.97
2018-08-12T23:53:50.460Z,3.40
2018-08-12T23:56:19.322Z,6.93
2018-08-12T23:58:48.158Z,4.30
